Perronville, MI (49873)

4:58 AM CST on February 07, 2016 (GMT -0600)
RAWS | | Change Station
CLOSE
Current Station
Personal Weather Station
Location: Perronville, MI
Elevation: 982 ft
Nearby Weather Stations

Elev 982 ft 45.88 °N, 87.49 °W | Updated 11 hours ago

Cloudy
Cloudy
32 °F
Feels Like 23 °F
N
12
Wind Variable Wind from South
Gusts 21 mph

Today
High -- | Low -- °F
--% Chance of Precip.
Yesterday
High -- | Low -- °F
Precip. -- in
Pressure 29.71 in
Visibility 5.0 miles
Clouds Scattered Clouds 600 ft
Overcast 5500 ft
Windchill 23 °F
Dew Point 30 °F
Humidity 91%
Rainfall in
Snow Depth Not available.
7:04 AM 5:04 PM
Waning Crescent, 2% visible
METAR KESC 071055Z AUTO 21010G18KT 5SM SCT006 OVC055 M01/M02 A2971 RMK AO1
Pressure 29.71 in
Visibility 5.0 miles
Clouds Scattered Clouds 600 ft
Overcast 5500 ft
Windchill 23 °F
Dew Point 30 °F
Humidity 91%
Rainfall in
Snow Depth Not available.
7:04 AM 5:04 PM
Waning Crescent, 2% visible
METAR KESC 071055Z AUTO 21010G18KT 5SM SCT006 OVC055 M01/M02 A2971 RMK AO1

10-Day Weather Forecast

Almanac

Astronomy

Feb. 07, 2016 Rise Set
Actual Time
Civil Twilight
Nautical Twilight
Astronomical Twilight
Moon
Length of Visible Light
Length of Day
Tomorrow will be .
, % of the Moon is Illuminated

Today's Extremes

State Highs State Lows

Community

WunderPhotos

Upload Photos

1,891,171 photos uploaded!

WunderBlog® & News

Nearby

Air Quality

  Air Quality AQ Index Pollutant
Not available.

Snow Depth

Station Depth Elevation

Earthquake Activity

City Distance Mag. Time & Date
Minimum magnitude displayed is 2.5.

Coastal Water Temperatures

Place Temperature

Stations

Nearby Weather Stations

Station Location Temp. Windchill Dew Point Humidity Wind Precip. Elev Updated Type
                   

Watches & Warnings

There are currently no watches in effect.